createdAt,value
2017-09-26T02:27:47.182Z,14.60
2017-09-26T02:30:14.696Z,14.60
2017-09-26T02:32:42.279Z,14.50
2017-09-26T02:35:09.804Z,14.60
2017-09-26T02:37:37.313Z,14.70
2017-09-26T02:40:04.827Z,14.70
2017-09-26T02:42:32.339Z,14.70
2017-09-26T02:44:59.869Z,14.80
2017-09-26T02:47:28.158Z,14.80
2017-09-26T02:49:55.661Z,14.80
2017-09-26T02:52:23.166Z,14.80
2017-09-26T02:54:50.694Z,14.80
2017-09-26T02:57:18.197Z,14.90
2017-09-26T02:59:45.725Z,14.80
2017-09-26T03:02:13.233Z,14.80
2017-09-26T03:04:40.892Z,14.90
2017-09-26T03:07:08.415Z,14.90
2017-09-26T03:09:36.700Z,14.80
2017-09-26T03:12:04.968Z,14.80
2017-09-26T03:14:33.244Z,14.80
2017-09-26T03:17:01.528Z,14.80
2017-09-26T03:19:29.800Z,14.90
2017-09-26T03:21:58.071Z,14.90
2017-09-26T03:24:25.573Z,14.90
2017-09-26T03:26:53.087Z,14.90
2017-09-26T03:29:20.600Z,14.90
2017-09-26T03:31:48.145Z,14.90
2017-09-26T03:34:15.638Z,14.90
2017-09-26T03:36:43.154Z,14.90
2017-09-26T03:39:10.672Z,14.90
2017-09-26T03:41:38.170Z,14.90
2017-09-26T03:44:05.665Z,14.90
2017-09-26T03:46:33.182Z,15.00
2017-09-26T03:49:00.690Z,15.00
2017-09-26T03:51:29.033Z,15.00
2017-09-26T03:53:56.540Z,15.00
2017-09-26T03:56:24.052Z,15.00
2017-09-26T03:58:51.583Z,15.00
2017-09-26T04:01:20.160Z,15.00
2017-09-26T04:03:47.684Z,15.00
2017-09-26T04:06:15.192Z,15.00
2017-09-26T04:08:43.478Z,15.10
2017-09-26T04:11:11.773Z,15.00
2017-09-26T04:13:39.293Z,15.00
2017-09-26T04:16:06.801Z,15.00
2017-09-26T04:18:34.306Z,15.00
2017-09-26T04:21:01.804Z,15.10
2017-09-26T04:23:29.332Z,15.10
2017-09-26T04:25:56.847Z,15.10
2017-09-26T04:28:24.348Z,15.00
2017-09-26T04:30:51.845Z,15.10
2017-09-26T04:33:19.401Z,15.10
2017-09-26T04:35:46.924Z,15.10
2017-09-26T04:38:14.440Z,15.10
2017-09-26T04:40:41.955Z,15.10
2017-09-26T04:43:09.458Z,15.10
2017-09-26T04:45:36.976Z,15.20
2017-09-26T04:48:05.258Z,15.10
2017-09-26T04:50:33.540Z,15.20
2017-09-26T04:53:01.033Z,15.20
2017-09-26T04:55:28.538Z,15.20
2017-09-26T04:57:56.818Z,15.10
2017-09-26T05:00:24.326Z,15.10
2017-09-26T05:02:51.835Z,15.10
2017-09-26T05:05:20.122Z,15.10
2017-09-26T05:07:47.677Z,15.10
2017-09-26T05:10:15.188Z,15.10
2017-09-26T05:12:42.688Z,15.10
2017-09-26T05:15:10.971Z,15.10
2017-09-26T05:17:39.232Z,15.10
2017-09-26T05:20:06.752Z,15.10
2017-09-26T05:22:34.284Z,15.20
2017-09-26T05:25:01.795Z,15.20
2017-09-26T05:27:29.315Z,15.20
2017-09-26T05:29:56.841Z,15.20
2017-09-26T05:32:24.400Z,15.30
2017-09-26T05:34:52.676Z,15.20
2017-09-26T05:37:20.942Z,15.20
2017-09-26T05:39:48.576Z,15.20
2017-09-26T05:42:16.088Z,15.20
2017-09-26T05:44:44.371Z,15.20
2017-09-26T05:47:11.912Z,15.20
2017-09-26T05:49:40.205Z,15.30
2017-09-26T05:52:07.727Z,15.30
2017-09-26T05:54:35.240Z,15.30
2017-09-26T05:57:02.838Z,15.30
2017-09-26T05:59:30.360Z,15.40
2017-09-26T06:01:57.868Z,15.30
2017-09-26T06:04:25.477Z,15.30
2017-09-26T06:06:52.997Z,15.30
2017-09-26T06:09:20.543Z,15.40
2017-09-26T06:11:48.072Z,15.40
2017-09-26T06:14:15.602Z,15.50
2017-09-26T06:16:43.191Z,15.40
2017-09-26T06:19:10.705Z,15.30
2017-09-26T06:21:38.266Z,15.40
2017-09-26T06:24:06.536Z,15.50
2017-09-26T06:26:34.041Z,15.50
2017-09-26T06:29:01.567Z,15.50
2017-09-26T06:31:29.124Z,15.50
2017-09-26T06:33:57.399Z,15.50
2017-09-26T06:36:25.704Z,15.50
2017-09-26T06:38:53.210Z,15.50
2017-09-26T06:41:20.728Z,15.50
2017-09-26T06:43:48.233Z,15.60
2017-09-26T06:46:15.768Z,15.70
2017-09-26T06:48:43.285Z,15.80
2017-09-26T06:51:10.814Z,15.80
2017-09-26T06:53:38.308Z,15.80
2017-09-26T06:56:05.815Z,15.80
2017-09-26T06:58:33.346Z,15.90
2017-09-26T07:01:00.861Z,16.00
2017-09-26T07:03:28.480Z,16.00
2017-09-26T07:05:55.984Z,16.00
2017-09-26T07:08:24.256Z,16.10
2017-09-26T07:10:51.794Z,16.00
2017-09-26T07:13:19.295Z,16.00
2017-09-26T07:15:46.799Z,16.10
2017-09-26T07:18:14.296Z,16.10
2017-09-26T07:20:42.584Z,16.20
2017-09-26T07:23:10.966Z,16.30
2017-09-26T07:25:38.485Z,16.30
2017-09-26T07:28:06.015Z,16.40
2017-09-26T07:30:33.544Z,16.50
2017-09-26T07:33:01.072Z,16.40
2017-09-26T07:35:28.616Z,16.40
2017-09-26T07:37:56.141Z,16.40
2017-09-26T07:40:23.672Z,16.50
2017-09-26T07:42:51.952Z,16.40
2017-09-26T07:45:20.220Z,16.50
2017-09-26T07:47:47.719Z,16.50
2017-09-26T07:50:15.233Z,16.50
2017-09-26T07:52:42.759Z,16.50
2017-09-26T07:55:10.317Z,16.60
2017-09-26T07:57:37.843Z,16.70
2017-09-26T08:00:05.361Z,16.70
2017-09-26T08:02:33.031Z,16.80
2017-09-26T08:05:00.701Z,16.90
2017-09-26T08:07:28.404Z,17.00
2017-09-26T08:09:56.109Z,16.90
2017-09-26T08:12:23.617Z,17.00
2017-09-26T08:14:51.168Z,17.00
2017-09-26T08:17:19.436Z,17.10
2017-09-26T08:19:47.720Z,17.20
2017-09-26T08:22:16.024Z,17.30
2017-09-26T08:24:43.549Z,17.30
2017-09-26T08:27:11.055Z,17.50
2017-09-26T08:29:38.568Z,17.50
2017-09-26T08:32:06.849Z,17.70
2017-09-26T08:34:35.116Z,17.70
2017-09-26T08:37:03.385Z,17.80
2017-09-26T08:39:30.890Z,17.80
2017-09-26T08:41:58.417Z,18.00
2017-09-26T08:44:25.964Z,18.20
2017-09-26T08:46:54.246Z,18.50
2017-09-26T08:49:22.568Z,18.50
2017-09-26T08:51:50.122Z,18.50
2017-09-26T08:54:17.629Z,18.70
2017-09-26T08:56:45.188Z,18.80
2017-09-26T08:59:12.682Z,19.00
2017-09-26T09:01:40.218Z,19.10
2017-09-26T09:04:07.723Z,19.00
2017-09-26T09:06:35.234Z,19.00
2017-09-26T09:09:02.746Z,19.00
2017-09-26T09:11:30.602Z,19.10
2017-09-26T09:13:58.123Z,19.20
2017-09-26T09:16:26.472Z,19.10
2017-09-26T09:18:53.984Z,19.10
2017-09-26T09:21:21.496Z,19.00
2017-09-26T09:23:49.015Z,19.10
2017-09-26T09:26:16.516Z,19.20
2017-09-26T09:28:44.052Z,19.20
2017-09-26T09:31:11.571Z,19.40
2017-09-26T09:33:39.903Z,19.60
2017-09-26T09:36:07.414Z,19.60
2017-09-26T09:38:35.033Z,19.70
2017-09-26T09:41:02.536Z,19.70
2017-09-26T09:43:30.057Z,19.50
2017-09-26T09:45:57.608Z,19.70
2017-09-26T09:48:25.104Z,19.50
2017-09-26T09:50:53.370Z,19.60
2017-09-26T09:53:20.879Z,19.60
2017-09-26T09:55:48.410Z,19.70
2017-09-26T09:58:15.935Z,19.70
2017-09-26T10:00:43.453Z,19.80
2017-09-26T10:03:10.975Z,19.90
2017-09-26T10:05:39.252Z,20.00
2017-09-26T10:08:07.577Z,20.20
2017-09-26T10:10:35.091Z,20.20
2017-09-26T10:13:02.746Z,20.50
2017-09-26T10:15:30.280Z,20.60
2017-09-26T10:17:57.859Z,20.90
2017-09-26T10:20:25.384Z,21.20
2017-09-26T10:22:52.890Z,21.10
2017-09-26T10:25:21.168Z,21.10
2017-09-26T10:27:49.449Z,20.90
2017-09-26T10:30:17.034Z,20.90
2017-09-26T10:32:44.564Z,21.10
2017-09-26T10:35:12.855Z,21.80
2017-09-26T10:37:41.720Z,22.40
2017-09-26T10:40:09.990Z,22.50
2017-09-26T10:42:37.527Z,22.40
2017-09-26T10:45:05.161Z,22.40
2017-09-26T10:47:32.706Z,22.40
2017-09-26T10:50:00.221Z,22.50
2017-09-26T10:52:27.724Z,22.80
2017-09-26T10:54:55.249Z,22.80
2017-09-26T10:57:22.736Z,22.60
2017-09-26T10:59:50.280Z,22.60
2017-09-26T11:02:18.555Z,22.40
2017-09-26T11:04:46.873Z,22.10
2017-09-26T11:07:14.389Z,22.00
2017-09-26T11:09:41.905Z,22.00
2017-09-26T11:12:09.483Z,21.80
2017-09-26T11:14:37.020Z,21.70
2017-09-26T11:17:04.526Z,21.60
2017-09-26T11:19:32.042Z,21.40
2017-09-26T11:21:59.588Z,21.20
2017-09-26T11:24:27.100Z,21.10
2017-09-26T11:26:54.618Z,21.20
2017-09-26T11:29:22.132Z,21.20
2017-09-26T11:31:49.634Z,21.00
2017-09-26T11:34:17.163Z,20.90
2017-09-26T11:36:44.802Z,20.90
2017-09-26T11:39:13.076Z,20.90
2017-09-26T11:41:40.610Z,20.90
2017-09-26T11:44:08.263Z,21.10
2017-09-26T11:46:35.791Z,21.10
2017-09-26T11:49:03.287Z,21.00
2017-09-26T11:51:30.797Z,21.00
2017-09-26T11:53:59.097Z,20.80
2017-09-26T11:56:26.612Z,20.80
2017-09-26T11:58:54.118Z,20.90
2017-09-26T12:01:21.649Z,21.00
2017-09-26T12:03:49.921Z,21.10
2017-09-26T12:06:18.219Z,20.90
2017-09-26T12:08:52.210Z,20.90
2017-09-26T12:11:20.527Z,20.70
2017-09-26T12:13:53.633Z,20.70
2017-09-26T12:16:21.214Z,20.60
2017-09-26T12:18:48.748Z,20.60
2017-09-26T12:21:16.246Z,20.60
2017-09-26T12:23:44.527Z,21.00
2017-09-26T12:26:13.142Z,21.30
2017-09-26T12:28:40.658Z,21.30
2017-09-26T12:31:08.184Z,21.60
2017-09-26T12:33:35.703Z,22.00
2017-09-26T12:36:03.201Z,22.40
2017-09-26T12:38:30.698Z,22.70
2017-09-26T12:40:58.304Z,22.60
2017-09-26T12:43:25.968Z,22.60
2017-09-26T12:45:53.513Z,22.60
2017-09-26T12:48:21.046Z,22.40
2017-09-26T12:50:48.564Z,22.40
2017-09-26T12:53:16.193Z,22.70
2017-09-26T12:55:43.712Z,23.00
2017-09-26T12:58:11.282Z,23.30
2017-09-26T13:00:38.794Z,23.40
2017-09-26T13:03:06.290Z,23.30
2017-09-26T13:05:33.907Z,23.30
2017-09-26T13:08:01.429Z,23.50
2017-09-26T13:10:29.690Z,23.40
2017-09-26T13:12:57.415Z,23.40
2017-09-26T13:15:24.929Z,23.20
2017-09-26T13:17:52.439Z,23.10
2017-09-26T13:20:20.142Z,22.90
2017-09-26T13:22:47.646Z,22.70
2017-09-26T13:25:15.184Z,22.50
2017-09-26T13:27:42.729Z,22.50
2017-09-26T13:30:11.041Z,22.50
2017-09-26T13:32:38.549Z,22.50
2017-09-26T13:35:06.060Z,22.60
2017-09-26T13:37:33.579Z,22.60
2017-09-26T13:40:01.088Z,22.40
2017-09-26T13:42:28.629Z,22.20
2017-09-26T13:44:56.138Z,22.20
2017-09-26T13:47:23.653Z,21.90
2017-09-26T13:49:51.155Z,21.60
2017-09-26T13:52:19.418Z,21.40
2017-09-26T13:54:46.950Z,21.40
2017-09-26T13:57:14.475Z,21.30
2017-09-26T13:59:42.785Z,21.10
2017-09-26T14:02:10.339Z,21.00
2017-09-26T14:04:37.870Z,21.10
2017-09-26T14:07:06.191Z,20.90
2017-09-26T14:09:33.697Z,20.90
2017-09-26T14:12:01.234Z,20.90
2017-09-26T14:14:28.790Z,20.90
2017-09-26T14:16:56.345Z,20.80
2017-09-26T14:19:23.848Z,20.60
2017-09-26T14:21:52.123Z,20.30
2017-09-26T14:24:20.406Z,20.20
2017-09-26T14:26:48.716Z,20.10
2017-09-26T14:29:16.317Z,20.10
2017-09-26T14:31:43.844Z,20.00
2017-09-26T14:34:11.361Z,20.00
2017-09-26T14:36:39.644Z,20.40
2017-09-26T14:39:07.157Z,20.40
2017-09-26T14:41:34.666Z,20.70
2017-09-26T14:44:02.928Z,21.60
2017-09-26T14:46:31.209Z,21.90
2017-09-26T14:48:59.476Z,22.00
2017-09-26T14:51:26.995Z,22.00
2017-09-26T14:53:54.507Z,22.10
2017-09-26T14:56:22.017Z,22.00
2017-09-26T14:58:49.522Z,21.70
2017-09-26T15:01:17.834Z,21.20
2017-09-26T15:03:45.377Z,21.20
2017-09-26T15:06:12.916Z,21.00
2017-09-26T15:08:41.191Z,20.70
2017-09-26T15:11:09.509Z,20.50
2017-09-26T15:13:37.027Z,20.40
2017-09-26T15:16:04.549Z,20.30
2017-09-26T15:18:32.108Z,20.30
2017-09-26T15:20:59.646Z,20.20
2017-09-26T15:23:27.158Z,20.20
2017-09-26T15:25:54.662Z,20.10
2017-09-26T15:28:22.174Z,20.10
2017-09-26T15:30:49.720Z,20.00
2017-09-26T15:33:17.232Z,20.00
2017-09-26T15:35:44.744Z,19.80
2017-09-26T15:38:12.445Z,19.70
2017-09-26T15:40:39.965Z,19.60
2017-09-26T15:43:07.468Z,19.50
2017-09-26T15:45:35.008Z,19.50
2017-09-26T15:48:03.284Z,19.40
2017-09-26T15:50:30.840Z,19.40
2017-09-26T15:52:59.135Z,19.30
2017-09-26T15:55:27.414Z,19.20
2017-09-26T15:57:54.942Z,19.20
2017-09-26T16:00:22.442Z,19.10
2017-09-26T16:02:50.088Z,19.00
2017-09-26T16:05:17.619Z,18.90
2017-09-26T16:07:45.130Z,18.90
2017-09-26T16:10:12.671Z,18.70
2017-09-26T16:12:40.186Z,18.70
2017-09-26T16:15:07.710Z,18.60
2017-09-26T16:17:35.231Z,18.50
2017-09-26T16:20:02.743Z,18.50
2017-09-26T16:22:30.255Z,18.50
2017-09-26T16:24:58.548Z,18.30
2017-09-26T16:27:26.052Z,18.30
2017-09-26T16:29:53.574Z,18.40
2017-09-26T16:32:21.092Z,18.40
2017-09-26T16:34:48.936Z,18.30
2017-09-26T16:37:16.526Z,18.30
2017-09-26T16:39:44.037Z,18.10
2017-09-26T16:42:11.559Z,18.00
2017-09-26T16:44:39.962Z,17.90
2017-09-26T16:47:07.507Z,17.80
2017-09-26T16:49:35.836Z,17.80
2017-09-26T16:52:03.368Z,17.80
2017-09-26T16:54:31.228Z,17.80
2017-09-26T16:56:58.756Z,17.80
2017-09-26T16:59:27.063Z,17.70
2017-09-26T17:01:54.593Z,17.60
2017-09-26T17:04:23.113Z,17.60
2017-09-26T17:06:50.640Z,17.50
2017-09-26T17:09:18.934Z,17.50
2017-09-26T17:11:46.467Z,17.50
2017-09-26T17:14:13.982Z,17.50
2017-09-26T17:16:41.492Z,17.40
2017-09-26T17:19:09.811Z,17.20
2017-09-26T17:21:38.830Z,17.10
2017-09-26T17:24:07.741Z,17.10
2017-09-26T17:26:35.266Z,17.00
2017-09-26T17:29:03.230Z,17.10
2017-09-26T17:31:30.762Z,17.00
2017-09-26T17:33:59.052Z,16.80
2017-09-26T17:36:26.592Z,16.80
2017-09-26T17:38:54.109Z,16.80
2017-09-26T17:41:21.625Z,16.80
2017-09-26T17:43:49.134Z,16.90
2017-09-26T17:46:16.638Z,16.80
2017-09-26T17:48:44.161Z,16.70
2017-09-26T17:51:11.785Z,16.70
2017-09-26T17:53:39.301Z,16.60
2017-09-26T17:56:07.568Z,16.60
2017-09-26T17:58:35.087Z,16.60
2017-09-26T18:01:02.624Z,16.60
2017-09-26T18:03:30.140Z,16.50
2017-09-26T18:05:57.765Z,16.50
2017-09-26T18:08:25.305Z,16.40
2017-09-26T18:10:52.933Z,16.50
2017-09-26T18:13:21.227Z,16.40
2017-09-26T18:15:49.516Z,16.30
2017-09-26T18:18:17.082Z,16.30
2017-09-26T18:20:44.607Z,16.30
2017-09-26T18:23:12.926Z,16.30
2017-09-26T18:25:42.313Z,16.30
2017-09-26T18:28:09.828Z,16.30
2017-09-26T18:30:37.348Z,16.30
2017-09-26T18:33:04.859Z,16.20
2017-09-26T18:35:32.416Z,16.20
2017-09-26T18:38:00.727Z,16.20
2017-09-26T18:40:28.247Z,16.10
2017-09-26T18:42:55.768Z,16.20
2017-09-26T18:45:23.322Z,16.20
2017-09-26T18:47:50.849Z,16.20
2017-09-26T18:50:18.377Z,16.20
2017-09-26T18:52:47.718Z,16.20
2017-09-26T18:55:16.058Z,16.10
2017-09-26T18:57:43.894Z,16.10
2017-09-26T19:00:11.429Z,16.10
2017-09-26T19:02:39.005Z,16.00
2017-09-26T19:05:06.550Z,15.90
2017-09-26T19:07:34.094Z,15.90
2017-09-26T19:10:02.549Z,16.00
2017-09-26T19:12:30.556Z,15.90
2017-09-26T19:14:58.835Z,16.00
2017-09-26T19:17:26.352Z,16.00
2017-09-26T19:19:53.966Z,16.00
2017-09-26T19:22:21.490Z,16.10
2017-09-26T19:24:49.015Z,16.10
2017-09-26T19:27:16.533Z,16.10
2017-09-26T19:29:44.056Z,16.10
2017-09-26T19:32:11.575Z,16.20
2017-09-26T19:34:39.085Z,16.20
2017-09-26T19:37:06.609Z,16.20
2017-09-26T19:39:34.168Z,16.20
2017-09-26T19:42:01.871Z,16.30
2017-09-26T19:44:29.389Z,16.30
2017-09-26T19:46:56.934Z,16.30
2017-09-26T19:49:24.559Z,16.30
2017-09-26T19:51:52.867Z,16.30
2017-09-26T19:54:20.423Z,16.30
2017-09-26T19:56:47.980Z,16.40
2017-09-26T19:59:15.508Z,16.40
2017-09-26T20:01:43.095Z,16.30
2017-09-26T20:04:10.790Z,16.30
2017-09-26T20:06:38.342Z,16.40
2017-09-26T20:09:05.969Z,16.50
2017-09-26T20:11:34.279Z,16.50
2017-09-26T20:14:02.067Z,16.50
2017-09-26T20:16:29.710Z,16.50
2017-09-26T20:18:57.311Z,16.50
2017-09-26T20:21:26.701Z,16.60
2017-09-26T20:23:54.288Z,16.50
2017-09-26T20:26:21.921Z,16.40
2017-09-26T20:28:49.612Z,16.40
2017-09-26T20:31:17.140Z,16.40
2017-09-26T20:33:44.985Z,16.40
2017-09-26T20:36:12.503Z,16.40
2017-09-26T20:38:40.798Z,16.30
2017-09-26T20:41:09.098Z,16.40
2017-09-26T20:43:36.641Z,16.40
2017-09-26T20:46:04.187Z,16.40
2017-09-26T20:48:31.738Z,16.40
2017-09-26T20:50:59.301Z,16.30
2017-09-26T20:53:26.965Z,16.30
2017-09-26T20:55:54.517Z,16.30
2017-09-26T20:58:22.120Z,16.30
2017-09-26T21:00:49.689Z,16.20
2017-09-26T21:03:17.281Z,16.30
2017-09-26T21:05:44.825Z,16.30
2017-09-26T21:08:12.415Z,16.30
2017-09-26T21:10:40.809Z,16.30
2017-09-26T21:13:09.118Z,16.20
2017-09-26T21:15:36.768Z,16.20
2017-09-26T21:18:04.288Z,16.20
2017-09-26T21:20:31.830Z,16.20
2017-09-26T21:22:59.727Z,16.20
2017-09-26T21:25:27.281Z,16.20
2017-09-26T21:27:54.891Z,16.20
2017-09-26T21:30:22.561Z,16.20
2017-09-26T21:32:50.164Z,16.20
2017-09-26T21:35:17.713Z,16.10
2017-09-26T21:37:45.265Z,16.10
2017-09-26T21:40:13.483Z,16.20
2017-09-26T21:42:41.868Z,16.10
2017-09-26T21:45:09.380Z,16.10
2017-09-26T21:47:36.953Z,16.10
2017-09-26T21:50:04.485Z,16.10
2017-09-26T21:52:32.090Z,16.10
2017-09-26T21:54:59.652Z,16.10
2017-09-26T21:57:27.976Z,16.00
2017-09-26T21:59:56.779Z,16.00
2017-09-26T22:02:24.393Z,16.00
2017-09-26T22:04:51.989Z,16.00
2017-09-26T22:07:19.526Z,16.00
2017-09-26T22:09:47.038Z,15.90
2017-09-26T22:12:14.548Z,16.00
2017-09-26T22:14:42.144Z,15.90
2017-09-26T22:17:09.707Z,15.90
2017-09-26T22:19:37.240Z,15.90
2017-09-26T22:22:04.810Z,15.90
2017-09-26T22:24:32.765Z,15.90
2017-09-26T22:27:00.328Z,15.90
2017-09-26T22:29:27.867Z,15.90
2017-09-26T22:31:55.374Z,15.80
2017-09-26T22:34:22.901Z,15.90
2017-09-26T22:36:50.439Z,15.90
2017-09-26T22:39:18.729Z,15.90
2017-09-26T22:41:46.246Z,15.90
2017-09-26T22:44:14.762Z,16.00
2017-09-26T22:46:43.044Z,15.90
2017-09-26T22:49:10.548Z,15.90
2017-09-26T22:51:38.081Z,15.90
2017-09-26T22:54:05.742Z,15.80
2017-09-26T22:56:33.273Z,15.90
2017-09-26T22:59:01.551Z,15.80
2017-09-26T23:01:29.823Z,15.80
2017-09-26T23:03:58.105Z,15.90
2017-09-26T23:06:26.382Z,15.90
2017-09-26T23:08:54.691Z,15.80
2017-09-26T23:11:22.191Z,15.80
2017-09-26T23:13:49.755Z,15.90
2017-09-26T23:16:17.280Z,15.90
2017-09-26T23:18:44.859Z,15.90
2017-09-26T23:21:12.368Z,15.80
2017-09-26T23:23:39.877Z,15.80
2017-09-26T23:26:07.410Z,15.70
2017-09-26T23:28:34.988Z,15.70
2017-09-26T23:31:02.514Z,15.60
2017-09-26T23:33:30.031Z,15.60
2017-09-26T23:35:57.595Z,15.60
2017-09-26T23:38:25.108Z,15.70
2017-09-26T23:40:52.644Z,15.60
2017-09-26T23:43:20.148Z,15.60
2017-09-26T23:45:47.644Z,15.70
2017-09-26T23:48:15.154Z,15.70
2017-09-26T23:50:42.681Z,15.60
2017-09-26T23:53:10.195Z,15.50
2017-09-26T23:55:37.709Z,15.50
2017-09-26T23:58:05.217Z,15.50
